createdAt,value
2018-12-14T00:01:49.221Z,13.30
2018-12-14T00:04:53.474Z,16.80
2018-12-14T00:07:57.668Z,15.10
2018-12-14T00:11:01.915Z,14.50
2018-12-14T00:14:06.224Z,14.37
2018-12-14T00:17:10.399Z,15.70
2018-12-14T00:20:14.814Z,14.97
2018-12-14T00:23:19.007Z,14.13
2018-12-14T00:26:23.510Z,12.40
2018-12-14T00:29:27.984Z,14.13
2018-12-14T00:32:32.078Z,12.90
2018-12-14T00:35:36.709Z,14.10
2018-12-14T00:38:41.131Z,12.27
2018-12-14T00:41:51.729Z,13.00
2018-12-14T00:44:51.788Z,14.87
2018-12-14T00:47:56.160Z,14.13
2018-12-14T00:51:00.403Z,13.57
2018-12-14T00:54:04.906Z,15.63
2018-12-14T00:57:09.345Z,14.80
2018-12-14T01:00:13.739Z,12.23
2018-12-14T01:03:18.023Z,14.20
2018-12-14T01:06:22.408Z,13.57
2018-12-14T01:09:26.701Z,14.00
2018-12-14T01:12:31.032Z,13.50
2018-12-14T01:15:35.375Z,15.30
2018-12-14T01:18:39.801Z,13.20
2018-12-14T01:21:43.861Z,13.73
2018-12-14T01:24:48.061Z,13.70
2018-12-14T01:27:52.197Z,15.17
2018-12-14T01:30:56.703Z,15.03
2018-12-14T01:34:00.825Z,14.77
2018-12-14T01:37:05.200Z,12.90
2018-12-14T01:40:09.555Z,14.40
2018-12-14T01:43:13.828Z,12.90
2018-12-14T01:46:18.065Z,13.90
2018-12-14T01:49:22.438Z,15.17
2018-12-14T01:52:26.950Z,13.60
2018-12-14T01:55:31.292Z,13.17
2018-12-14T01:58:35.733Z,12.50
2018-12-14T02:01:40.155Z,13.70
2018-12-14T02:04:44.409Z,13.77
2018-12-14T02:07:48.783Z,13.17
2018-12-14T02:10:53.081Z,13.80
2018-12-14T02:13:57.260Z,13.43
2018-12-14T02:17:01.728Z,14.00
2018-12-14T02:20:05.889Z,14.10
2018-12-14T02:23:10.114Z,15.27
2018-12-14T02:26:15.208Z,14.43
2018-12-14T02:29:19.454Z,15.07
2018-12-14T02:32:23.802Z,14.30
2018-12-14T02:35:28.126Z,14.30
2018-12-14T02:38:32.600Z,14.07
2018-12-14T02:41:36.806Z,15.67
2018-12-14T02:44:41.261Z,13.97
2018-12-14T02:47:45.563Z,15.40
2018-12-14T02:50:49.734Z,14.43
2018-12-14T02:53:53.749Z,14.80
2018-12-14T02:56:58.186Z,15.83
2018-12-14T03:00:02.659Z,13.93
2018-12-14T03:03:07.235Z,14.93
2018-12-14T03:06:11.758Z,15.67
2018-12-14T03:09:16.861Z,13.80
2018-12-14T03:12:26.639Z,15.33
2018-12-14T03:15:27.436Z,14.20
2018-12-14T03:18:31.997Z,14.77
2018-12-14T03:21:36.387Z,15.00
2018-12-14T03:24:40.683Z,14.53
2018-12-14T03:27:45.674Z,15.13
2018-12-14T03:30:49.754Z,15.00
2018-12-14T03:33:54.162Z,16.10
2018-12-14T03:36:58.598Z,16.00
2018-12-14T03:40:03.680Z,14.67
2018-12-14T03:43:07.921Z,13.93
2018-12-14T03:46:12.081Z,16.00
2018-12-14T03:49:16.400Z,15.67
2018-12-14T03:52:20.854Z,15.23
2018-12-14T03:55:25.148Z,15.63
2018-12-14T03:58:29.284Z,14.70
2018-12-14T04:01:34.145Z,14.73
2018-12-14T04:04:44.867Z,15.23
2018-12-14T04:07:49.283Z,14.67
2018-12-14T04:10:53.631Z,12.90
2018-12-14T04:13:58.094Z,14.63
2018-12-14T04:17:02.248Z,14.47
2018-12-14T04:20:06.994Z,15.20
2018-12-14T04:23:11.313Z,17.57
2018-12-14T04:26:15.958Z,15.80
2018-12-14T04:29:21.031Z,17.23
2018-12-14T04:32:25.650Z,15.73
2018-12-14T04:35:29.946Z,17.20
2018-12-14T04:38:34.142Z,17.53
2018-12-14T04:41:38.392Z,16.33
2018-12-14T04:44:42.959Z,18.23
2018-12-14T04:47:47.128Z,19.37
2018-12-14T04:50:51.571Z,18.83
2018-12-14T04:53:55.897Z,18.53
2018-12-14T04:57:00.222Z,18.53
2018-12-14T05:00:04.795Z,19.20
2018-12-14T05:03:09.081Z,18.10
2018-12-14T05:06:13.158Z,19.50
2018-12-14T05:09:17.412Z,19.97
2018-12-14T05:12:21.632Z,20.70
2018-12-14T05:15:25.963Z,19.80
2018-12-14T05:18:30.262Z,20.67
2018-12-14T05:21:34.675Z,20.50
2018-12-14T05:24:39.149Z,18.37
2018-12-14T05:27:43.475Z,20.40
2018-12-14T05:30:47.972Z,19.00
2018-12-14T05:33:52.333Z,21.60
2018-12-14T05:36:56.376Z,19.80
2018-12-14T05:40:00.505Z,20.30
2018-12-14T05:43:04.846Z,21.57
2018-12-14T05:46:09.191Z,18.70
2018-12-14T05:49:13.329Z,20.20
2018-12-14T05:52:17.611Z,21.97
2018-12-14T05:55:22.158Z,22.47
2018-12-14T05:58:26.535Z,21.10
2018-12-14T06:01:30.968Z,19.60
2018-12-14T06:04:35.299Z,20.10
2018-12-14T06:07:39.624Z,20.00
2018-12-14T06:10:43.952Z,21.60
2018-12-14T06:13:48.665Z,22.30
2018-12-14T06:16:52.716Z,22.73
2018-12-14T06:19:56.855Z,22.13
2018-12-14T06:23:01.120Z,23.07
2018-12-14T06:26:05.558Z,22.10
2018-12-14T06:29:10.755Z,21.30
2018-12-14T06:32:15.093Z,22.53
2018-12-14T06:35:20.035Z,20.10
2018-12-14T06:38:24.429Z,19.30
2018-12-14T06:41:28.841Z,17.53
2018-12-14T06:44:32.869Z,19.70
2018-12-14T06:47:37.470Z,20.07
2018-12-14T06:50:42.139Z,17.00
2018-12-14T06:53:46.804Z,20.13
2018-12-14T06:56:51.232Z,21.13
2018-12-14T06:59:56.418Z,17.43
2018-12-14T07:03:00.506Z,16.30
2018-12-14T07:06:04.810Z,20.07
2018-12-14T07:09:09.094Z,19.17
2018-12-14T07:12:13.386Z,18.87
2018-12-14T07:15:17.708Z,19.17
2018-12-14T07:18:22.095Z,18.70
2018-12-14T07:21:26.411Z,18.20
2018-12-14T07:24:30.810Z,19.00
2018-12-14T07:27:35.182Z,21.63
2018-12-14T07:30:39.539Z,19.67
2018-12-14T07:33:43.908Z,17.10
2018-12-14T07:36:48.401Z,18.73
2018-12-14T07:39:52.546Z,18.80
2018-12-14T07:42:57.100Z,17.80
2018-12-14T07:46:01.224Z,16.53
2018-12-14T07:49:05.687Z,18.30
2018-12-14T07:52:10.152Z,18.57
2018-12-14T07:55:14.876Z,17.90
2018-12-14T07:58:19.321Z,17.50
2018-12-14T08:01:23.792Z,18.60
2018-12-14T08:04:28.343Z,17.67
2018-12-14T08:07:33.328Z,16.60
2018-12-14T08:10:37.546Z,15.10
2018-12-14T08:13:42.032Z,15.27
2018-12-14T08:16:46.185Z,16.17
2018-12-14T08:19:50.574Z,15.60
2018-12-14T08:22:54.821Z,17.70
2018-12-14T08:25:59.056Z,17.77
2018-12-14T08:29:03.471Z,16.47
2018-12-14T08:32:07.804Z,17.63
2018-12-14T08:35:12.305Z,16.47
2018-12-14T08:38:16.798Z,15.83
2018-12-14T08:41:21.147Z,15.27
2018-12-14T08:44:25.671Z,17.07
2018-12-14T08:47:30.076Z,18.07
2018-12-14T08:50:35.111Z,18.97
2018-12-14T08:53:39.733Z,15.77
2018-12-14T08:56:44.332Z,16.53
2018-12-14T08:59:48.978Z,17.33
2018-12-14T09:02:53.745Z,17.23
2018-12-14T09:05:58.209Z,15.17
2018-12-14T09:09:02.756Z,14.77
2018-12-14T09:12:06.956Z,15.50
2018-12-14T09:15:11.230Z,17.27
2018-12-14T09:18:15.632Z,16.10
2018-12-14T09:21:20.261Z,14.07
2018-12-14T09:24:24.461Z,15.37
2018-12-14T09:27:28.897Z,15.53
2018-12-14T09:30:33.248Z,14.10
2018-12-14T09:33:37.575Z,14.77
2018-12-14T09:36:41.751Z,14.03
2018-12-14T09:39:46.009Z,13.20
2018-12-14T09:42:50.157Z,15.57
2018-12-14T09:45:54.575Z,14.30
2018-12-14T09:48:58.744Z,16.13
2018-12-14T09:52:03.168Z,14.53
2018-12-14T09:55:07.795Z,15.38
2018-12-14T09:58:12.118Z,16.37
2018-12-14T10:01:16.811Z,15.23
2018-12-14T10:04:21.018Z,15.63
2018-12-14T10:07:25.379Z,16.97
2018-12-14T10:10:29.672Z,17.37
2018-12-14T10:13:34.180Z,15.40
2018-12-14T10:16:38.229Z,15.67
2018-12-14T10:19:42.576Z,18.03
2018-12-14T10:22:46.888Z,16.40
2018-12-14T10:25:51.117Z,20.77
2018-12-14T10:28:55.555Z,16.47
2018-12-14T10:31:59.756Z,17.70
2018-12-14T10:35:04.490Z,17.60
2018-12-14T10:38:08.831Z,18.00
2018-12-14T10:41:13.150Z,19.10
2018-12-14T10:44:17.636Z,16.60
2018-12-14T10:47:21.540Z,18.17
2018-12-14T10:50:25.900Z,18.30
2018-12-14T10:53:30.351Z,17.97
2018-12-14T10:56:34.388Z,16.17
2018-12-14T10:59:38.625Z,17.53
2018-12-14T11:02:43.034Z,15.90
2018-12-14T11:05:47.188Z,15.57
2018-12-14T11:08:51.569Z,15.43
2018-12-14T11:11:55.857Z,15.00
2018-12-14T11:15:00.158Z,13.43
2018-12-14T11:18:04.476Z,14.53
2018-12-14T11:21:08.613Z,15.77
2018-12-14T11:24:12.681Z,15.53
2018-12-14T11:27:17.308Z,14.67
2018-12-14T11:30:21.806Z,15.00
2018-12-14T11:33:26.190Z,15.50
2018-12-14T11:36:30.462Z,17.70
2018-12-14T11:39:34.704Z,16.60
2018-12-14T11:42:39.044Z,17.00
2018-12-14T11:45:43.641Z,17.20
2018-12-14T11:48:48.132Z,17.57
2018-12-14T11:51:52.473Z,17.03
2018-12-14T11:54:56.796Z,17.73
2018-12-14T11:58:01.309Z,18.57
2018-12-14T12:01:05.452Z,18.27
2018-12-14T12:04:09.966Z,17.97
2018-12-14T12:07:14.177Z,17.10
2018-12-14T12:10:18.424Z,17.77
2018-12-14T12:13:22.684Z,15.30
2018-12-14T12:16:27.036Z,16.03
2018-12-14T12:19:31.356Z,16.30
2018-12-14T12:22:35.664Z,15.90
2018-12-14T12:25:39.971Z,15.00
2018-12-14T12:28:44.187Z,16.27
2018-12-14T12:31:48.662Z,18.50
2018-12-14T12:34:52.894Z,17.40
2018-12-14T12:37:57.474Z,16.37
2018-12-14T12:41:01.743Z,16.73
2018-12-14T12:44:06.122Z,16.83
2018-12-14T12:47:10.646Z,17.23
2018-12-14T12:50:14.807Z,17.50
2018-12-14T12:53:19.211Z,15.87
2018-12-14T12:56:23.636Z,17.53
2018-12-14T12:59:27.868Z,16.50
2018-12-14T13:02:32.188Z,15.60
2018-12-14T13:05:36.672Z,15.37
2018-12-14T13:08:41.078Z,17.20
2018-12-14T13:11:46.033Z,18.20
2018-12-14T13:14:50.516Z,16.03
2018-12-14T13:17:55.333Z,19.53
2018-12-14T13:20:59.613Z,15.40
2018-12-14T13:24:04.021Z,18.60
2018-12-14T13:27:08.285Z,16.47
2018-12-14T13:30:12.505Z,15.27
2018-12-14T13:33:17.142Z,15.87
2018-12-14T13:36:21.553Z,14.43
2018-12-14T13:39:25.956Z,15.53
2018-12-14T13:42:30.235Z,12.40
2018-12-14T13:45:34.517Z,16.80
2018-12-14T13:48:38.927Z,16.47
2018-12-14T13:51:43.154Z,14.97
2018-12-14T13:54:47.742Z,16.37
2018-12-14T13:57:51.958Z,14.30
2018-12-14T14:00:56.759Z,13.60
2018-12-14T14:04:01.146Z,13.27
2018-12-14T14:07:06.463Z,12.50
2018-12-14T14:10:10.950Z,13.23
2018-12-14T14:13:15.417Z,15.03
2018-12-14T14:16:19.737Z,15.17
2018-12-14T14:19:24.656Z,14.27
2018-12-14T14:22:29.834Z,13.70
2018-12-14T14:25:34.346Z,15.03
2018-12-14T14:28:39.236Z,17.07
2018-12-14T14:31:45.134Z,16.90
2018-12-14T14:34:49.175Z,18.70
2018-12-14T14:37:57.497Z,17.70
2018-12-14T14:41:01.751Z,18.20
2018-12-14T14:44:05.812Z,20.00
2018-12-14T14:47:10.071Z,19.73
2018-12-14T14:50:14.280Z,18.60
2018-12-14T14:53:18.472Z,18.50
2018-12-14T14:56:22.757Z,16.40
2018-12-14T14:59:26.989Z,18.30
2018-12-14T15:02:31.281Z,16.67
2018-12-14T15:05:35.444Z,16.73
2018-12-14T15:08:39.772Z,16.90
2018-12-14T15:11:50.504Z,16.37
2018-12-14T15:14:55.388Z,17.37
2018-12-14T15:17:59.498Z,17.60
2018-12-14T15:21:04.741Z,17.40
2018-12-14T15:24:08.965Z,16.20
2018-12-14T15:27:13.495Z,16.70
2018-12-14T15:30:18.504Z,18.13
2018-12-14T15:33:22.341Z,15.70
2018-12-14T15:36:26.228Z,18.40
2018-12-14T15:39:30.468Z,17.47
2018-12-14T15:42:35.270Z,17.30
2018-12-14T15:45:39.652Z,15.60
2018-12-14T15:48:43.791Z,16.10
2018-12-14T15:51:47.935Z,15.47
2018-12-14T15:54:52.266Z,14.60
2018-12-14T15:57:56.427Z,15.27
2018-12-14T16:01:00.574Z,14.23
2018-12-14T16:04:04.750Z,14.07
2018-12-14T16:07:09.100Z,16.03
2018-12-14T16:10:13.667Z,16.07
2018-12-14T16:13:18.561Z,14.17
2018-12-14T16:16:22.853Z,14.37
2018-12-14T16:19:27.244Z,17.07
2018-12-14T16:22:31.553Z,15.10
2018-12-14T16:25:35.809Z,15.33
2018-12-14T16:28:40.149Z,15.77
2018-12-14T16:31:44.558Z,17.33
2018-12-14T16:34:48.588Z,17.53
2018-12-14T16:37:52.983Z,18.27
2018-12-14T16:40:57.178Z,20.20
2018-12-14T16:44:01.415Z,18.00
2018-12-14T16:47:06.071Z,17.00
2018-12-14T16:50:10.289Z,20.47
2018-12-14T16:53:16.980Z,20.20
2018-12-14T16:56:21.540Z,17.77
2018-12-14T16:59:25.981Z,16.97
2018-12-14T17:02:30.115Z,16.27
2018-12-14T17:05:34.875Z,19.10
2018-12-14T17:08:39.271Z,17.10
2018-12-14T17:11:43.300Z,19.00
2018-12-14T17:14:47.743Z,18.57
2018-12-14T17:17:52.435Z,15.50
2018-12-14T17:20:56.313Z,15.87
2018-12-14T17:24:00.180Z,16.30
2018-12-14T17:27:05.087Z,15.43
2018-12-14T17:30:09.823Z,14.00
2018-12-14T17:33:14.547Z,14.17
2018-12-14T17:36:18.803Z,13.40
2018-12-14T17:39:23.150Z,16.30
2018-12-14T17:42:27.482Z,17.70
2018-12-14T17:45:32.035Z,16.40
2018-12-14T17:48:36.510Z,16.47
2018-12-14T17:51:42.147Z,16.30
2018-12-14T17:54:46.954Z,15.87
2018-12-14T17:57:51.197Z,16.23
2018-12-14T18:00:58.536Z,16.77
2018-12-14T18:04:02.675Z,15.80
2018-12-14T18:07:07.300Z,14.77
2018-12-14T18:10:11.710Z,13.80
2018-12-14T18:13:15.737Z,16.70
2018-12-14T18:16:20.526Z,15.60
2018-12-14T18:19:25.597Z,14.63
2018-12-14T18:22:30.533Z,15.13
2018-12-14T18:25:34.897Z,15.23
2018-12-14T18:28:40.322Z,13.60
2018-12-14T18:31:44.544Z,14.80
2018-12-14T18:34:49.486Z,15.77
2018-12-14T18:37:53.515Z,14.00
2018-12-14T18:40:58.444Z,15.63
2018-12-14T18:44:02.636Z,15.40
2018-12-14T18:47:06.986Z,15.40
2018-12-14T18:50:11.815Z,13.87
2018-12-14T18:53:17.588Z,15.70
2018-12-14T18:56:21.793Z,15.33
2018-12-14T18:59:26.996Z,15.27
2018-12-14T19:02:31.791Z,14.80
2018-12-14T19:05:36.240Z,23.87
2018-12-14T19:08:40.921Z,13.63
2018-12-14T19:11:45.273Z,17.10
2018-12-14T19:14:50.038Z,16.97
2018-12-14T19:17:54.181Z,16.93
2018-12-14T19:20:58.038Z,20.27
2018-12-14T19:24:02.202Z,18.20
2018-12-14T19:27:06.407Z,20.50
2018-12-14T19:30:10.993Z,20.80
2018-12-14T19:33:15.335Z,19.27
2018-12-14T19:36:19.905Z,18.93
2018-12-14T19:39:24.534Z,18.47
2018-12-14T19:42:28.919Z,19.77
2018-12-14T19:45:33.133Z,16.70
2018-12-14T19:48:37.427Z,16.03
2018-12-14T19:51:41.778Z,19.30
2018-12-14T19:54:46.273Z,17.50
2018-12-14T19:57:50.584Z,16.07
2018-12-14T20:00:55.013Z,18.00
2018-12-14T20:03:59.451Z,13.10
2018-12-14T20:07:04.653Z,15.63
2018-12-14T20:10:09.349Z,14.40
2018-12-14T20:13:13.542Z,16.70
2018-12-14T20:16:17.853Z,15.07
2018-12-14T20:19:22.081Z,13.83
2018-12-14T20:22:26.746Z,14.37
2018-12-14T20:25:31.782Z,14.23
2018-12-14T20:28:35.903Z,14.50
2018-12-14T20:31:40.249Z,15.10
2018-12-14T20:34:44.560Z,15.37
2018-12-14T20:37:49.035Z,15.13
2018-12-14T20:40:53.943Z,15.23
2018-12-14T20:43:59.208Z,13.10
2018-12-14T20:47:04.811Z,16.10
2018-12-14T20:50:09.391Z,13.80
2018-12-14T20:53:14.352Z,15.20
2018-12-14T20:56:19.268Z,14.03
2018-12-14T20:59:23.342Z,14.83
2018-12-14T21:02:27.768Z,14.87
2018-12-14T21:05:31.851Z,14.80
2018-12-14T21:08:36.899Z,14.73
2018-12-14T21:11:41.244Z,15.27
2018-12-14T21:14:50.749Z,15.30
2018-12-14T21:17:52.554Z,14.63
2018-12-14T21:20:56.952Z,18.57
2018-12-14T21:24:01.541Z,12.60
2018-12-14T21:27:06.587Z,14.70
2018-12-14T21:30:11.012Z,13.10
2018-12-14T21:33:15.937Z,16.63
2018-12-14T21:36:20.037Z,17.43
2018-12-14T21:39:25.115Z,15.47
2018-12-14T21:42:29.465Z,16.20
2018-12-14T21:45:34.298Z,16.87
2018-12-14T21:48:39.130Z,16.47
2018-12-14T21:51:43.180Z,16.30
2018-12-14T21:54:47.424Z,14.33
2018-12-14T21:57:51.946Z,16.70
2018-12-14T22:00:56.821Z,17.20
2018-12-14T22:04:00.923Z,15.47
2018-12-14T22:07:06.143Z,14.83
2018-12-14T22:10:10.595Z,16.60
2018-12-14T22:13:14.706Z,18.90
2018-12-14T22:16:18.988Z,16.50
2018-12-14T22:19:24.373Z,17.30
2018-12-14T22:22:28.517Z,19.23
2018-12-14T22:25:32.846Z,17.07
2018-12-14T22:28:37.311Z,16.20
2018-12-14T22:31:41.340Z,15.77
2018-12-14T22:34:45.470Z,15.87
2018-12-14T22:37:49.799Z,15.70
2018-12-14T22:40:53.946Z,16.30
2018-12-14T22:43:58.011Z,16.60
2018-12-14T22:47:02.510Z,15.57
2018-12-14T22:50:07.342Z,16.57
2018-12-14T22:53:11.775Z,17.73
2018-12-14T22:56:16.022Z,15.97
2018-12-14T22:59:20.343Z,28.07
2018-12-14T23:02:24.616Z,20.60
2018-12-14T23:05:28.942Z,17.73
2018-12-14T23:08:33.403Z,17.87
2018-12-14T23:11:37.702Z,17.20
2018-12-14T23:14:42.311Z,16.33
2018-12-14T23:17:46.521Z,17.07
2018-12-14T23:20:50.809Z,16.23
2018-12-14T23:23:55.212Z,16.80
2018-12-14T23:26:59.488Z,14.93
2018-12-14T23:30:03.817Z,14.33
2018-12-14T23:33:08.198Z,16.97
2018-12-14T23:36:12.560Z,17.00
2018-12-14T23:39:16.990Z,16.60
2018-12-14T23:42:20.938Z,17.83
2018-12-14T23:45:25.493Z,17.00
2018-12-14T23:48:29.947Z,16.87
2018-12-14T23:51:34.181Z,17.17
2018-12-14T23:54:38.486Z,19.20
2018-12-14T23:57:42.931Z,18.60
